createdAt,value
2018-07-23T00:00:41.612Z,100707.84
2018-07-23T00:01:45.020Z,100714.00
2018-07-23T00:02:48.508Z,100708.21
2018-07-23T00:03:51.884Z,100707.63
2018-07-23T00:04:55.273Z,100707.03
2018-07-23T00:05:58.681Z,100705.98
2018-07-23T00:07:02.079Z,100709.36
2018-07-23T00:08:05.525Z,100702.40
2018-07-23T00:09:09.117Z,100706.82
2018-07-23T00:10:12.518Z,100705.43
2018-07-23T00:11:15.910Z,100707.03
2018-07-23T00:12:19.350Z,100702.86
2018-07-23T00:13:22.744Z,100708.21
2018-07-23T00:14:26.144Z,100704.03
2018-07-23T00:15:29.566Z,100704.25
2018-07-23T00:16:32.946Z,100702.05
2018-07-23T00:17:36.379Z,100705.64
2018-07-23T00:18:39.778Z,100708.42
2018-07-23T00:19:43.197Z,100698.47
2018-07-23T00:20:46.617Z,100705.64
2018-07-23T00:21:50.014Z,100701.25
2018-07-23T00:22:53.427Z,100707.63
2018-07-23T00:23:56.840Z,100708.21
2018-07-23T00:25:00.232Z,100705.43
2018-07-23T00:26:03.651Z,100706.36
2018-07-23T00:27:07.153Z,100704.38
2018-07-23T00:28:10.552Z,100704.97
2018-07-23T00:29:13.974Z,100709.15
2018-07-23T00:30:17.400Z,100703.37
2018-07-23T00:31:20.843Z,100705.56
2018-07-23T00:32:24.225Z,100705.56
2018-07-23T00:33:27.594Z,100706.95
2018-07-23T00:34:30.976Z,100705.34
2018-07-23T00:35:34.394Z,100706.15
2018-07-23T00:36:37.803Z,100702.94
2018-07-23T00:37:41.219Z,100703.16
2018-07-23T00:38:44.629Z,100699.56
2018-07-23T00:39:48.036Z,100702.94
2018-07-23T00:40:51.439Z,100705.94
2018-07-23T00:41:54.871Z,100705.72
2018-07-23T00:42:58.294Z,100704.33
2018-07-23T00:44:01.693Z,100702.13
2018-07-23T00:45:05.153Z,100707.11
2018-07-23T00:46:08.572Z,100706.31
2018-07-23T00:47:12.089Z,100705.13
2018-07-23T00:48:15.469Z,100704.12
2018-07-23T00:49:18.857Z,100702.72
2018-07-23T00:50:22.242Z,100702.34
2018-07-23T00:51:25.720Z,100704.33
2018-07-23T00:52:29.152Z,100705.94
2018-07-23T00:53:32.538Z,100703.95
2018-07-23T00:54:35.925Z,100696.78
2018-07-23T00:55:39.320Z,100703.95
2018-07-23T00:56:42.712Z,100702.56
2018-07-23T00:57:46.117Z,100706.15
2018-07-23T00:58:49.518Z,100707.55
2018-07-23T00:59:52.908Z,100701.97
2018-07-23T01:00:56.318Z,100703.95
2018-07-23T01:01:59.713Z,100706.36
2018-07-23T01:03:05.965Z,100704.76
2018-07-23T01:04:09.388Z,100704.17
2018-07-23T01:05:12.780Z,100706.15
2018-07-23T01:06:16.173Z,100705.56
2018-07-23T01:07:19.588Z,100702.40
2018-07-23T01:08:22.995Z,100705.19
2018-07-23T01:09:26.408Z,100704.03
2018-07-23T01:10:29.840Z,100710.16
2018-07-23T01:11:33.260Z,100709.02
2018-07-23T01:12:36.652Z,100713.19
2018-07-23T01:13:40.082Z,100714.80
2018-07-23T01:14:43.507Z,100711.80
2018-07-23T01:15:46.909Z,100714.59
2018-07-23T01:16:50.290Z,100714.00
2018-07-23T01:17:53.716Z,100716.78
2018-07-23T01:18:57.152Z,100715.39
2018-07-23T01:20:00.832Z,100714.59
2018-07-23T01:21:04.263Z,100718.77
2018-07-23T01:22:07.661Z,100719.91
2018-07-23T01:23:11.034Z,100715.98
2018-07-23T01:24:14.444Z,100718.77
2018-07-23T01:25:17.851Z,100723.16
2018-07-23T01:26:21.284Z,100720.95
2018-07-23T01:27:24.921Z,100721.17
2018-07-23T01:28:28.354Z,100724.55
2018-07-23T01:29:31.824Z,100720.37
2018-07-23T01:30:35.240Z,100724.33
2018-07-23T01:31:38.624Z,100723.53
2018-07-23T01:32:42.030Z,100713.78
2018-07-23T01:33:45.454Z,100722.94
2018-07-23T01:34:48.918Z,100724.55
2018-07-23T01:35:52.320Z,100725.13
2018-07-23T01:36:55.709Z,100717.58
2018-07-23T01:37:59.108Z,100718.17
2018-07-23T01:39:02.537Z,100719.56
2018-07-23T01:40:06.086Z,100723.16
2018-07-23T01:41:09.465Z,100719.78
2018-07-23T01:42:13.043Z,100722.35
2018-07-23T01:43:16.440Z,100712.60
2018-07-23T01:44:19.828Z,100725.94
2018-07-23T01:45:23.279Z,100722.56
2018-07-23T01:46:26.687Z,100721.17
2018-07-23T01:47:30.073Z,100721.97
2018-07-23T01:48:33.464Z,100728.13
2018-07-23T01:49:36.870Z,100727.55
2018-07-23T01:50:40.279Z,100723.95
2018-07-23T01:51:43.668Z,100723.74
2018-07-23T01:52:47.093Z,100723.74
2018-07-23T01:53:50.513Z,100724.55
2018-07-23T01:54:53.913Z,100725.34
2018-07-23T01:55:57.414Z,100725.13
2018-07-23T01:57:00.844Z,100726.16
2018-07-23T01:58:04.232Z,100729.31
2018-07-23T01:59:07.637Z,100730.11
2018-07-23T02:00:11.116Z,100726.74
2018-07-23T02:01:14.578Z,100729.73
2018-07-23T02:02:17.976Z,100728.94
2018-07-23T02:03:21.532Z,100731.34
2018-07-23T02:04:24.979Z,100726.95
2018-07-23T02:05:28.385Z,100734.72
2018-07-23T02:06:31.799Z,100732.52
2018-07-23T02:07:35.265Z,100729.73
2018-07-23T02:08:38.728Z,100729.52
2018-07-23T02:09:42.140Z,100728.34
2018-07-23T02:10:45.566Z,100727.76
2018-07-23T02:11:48.965Z,100731.13
2018-07-23T02:12:52.475Z,100734.12
2018-07-23T02:13:55.866Z,100739.48
2018-07-23T02:14:59.269Z,100741.68
2018-07-23T02:16:02.689Z,100739.70
2018-07-23T02:17:06.399Z,100741.09
2018-07-23T02:18:09.849Z,100739.70
2018-07-23T02:19:13.268Z,100739.48
2018-07-23T02:20:16.654Z,100736.91
2018-07-23T02:21:20.071Z,100746.45
2018-07-23T02:22:23.516Z,100743.28
2018-07-23T02:23:26.932Z,100743.88
2018-07-23T02:24:30.315Z,100745.27
2018-07-23T02:25:33.788Z,100742.48
2018-07-23T02:26:37.207Z,100748.05
2018-07-23T02:27:40.605Z,100745.05
2018-07-23T02:28:43.989Z,100745.27
2018-07-23T02:29:47.408Z,100749.23
2018-07-23T02:30:50.838Z,100753.62
2018-07-23T02:31:54.225Z,100743.66
2018-07-23T02:32:57.627Z,100746.66
2018-07-23T02:34:01.028Z,100745.86
2018-07-23T02:35:04.530Z,100745.86
2018-07-23T02:36:08.121Z,100744.84
2018-07-23T02:37:11.531Z,100746.23
2018-07-23T02:38:14.937Z,100746.23
2018-07-23T02:39:18.349Z,100749.61
2018-07-23T02:40:21.726Z,100748.80
2018-07-23T02:41:25.133Z,100744.63
2018-07-23T02:42:28.561Z,100746.61
2018-07-23T02:43:31.970Z,100745.80
2018-07-23T02:44:35.455Z,100744.63
2018-07-23T02:45:39.024Z,100748.00
2018-07-23T02:46:42.486Z,100749.39
2018-07-23T02:47:45.872Z,100749.98
2018-07-23T02:48:49.283Z,100746.95
2018-07-23T02:49:52.693Z,100745.55
2018-07-23T02:50:56.069Z,100750.54
2018-07-23T02:51:59.469Z,100743.95
2018-07-23T02:53:02.876Z,100750.32
2018-07-23T02:54:06.339Z,100752.09
2018-07-23T02:55:09.786Z,100749.52
2018-07-23T02:56:13.209Z,100751.50
2018-07-23T02:57:16.604Z,100755.09
2018-07-23T02:58:20.000Z,100747.91
2018-07-23T02:59:23.403Z,100754.28
2018-07-23T03:00:26.794Z,100755.30
2018-07-23T03:01:30.177Z,100752.89
2018-07-23T03:02:33.617Z,100754.88
2018-07-23T03:03:37.033Z,100752.89
2018-07-23T03:04:40.471Z,100754.28
2018-07-23T03:05:43.864Z,100756.27
2018-07-23T03:06:47.257Z,100754.07
2018-07-23T03:07:50.643Z,100755.84
2018-07-23T03:08:54.056Z,100755.63
2018-07-23T03:09:57.488Z,100757.23
2018-07-23T03:11:01.083Z,100758.63
2018-07-23T03:12:04.520Z,100752.63
2018-07-23T03:13:08.331Z,100761.56
2018-07-23T03:14:11.714Z,100754.82
2018-07-23T03:15:15.398Z,100760.73
2018-07-23T03:16:19.473Z,100760.17
2018-07-23T03:17:22.918Z,100760.73
2018-07-23T03:18:26.294Z,100760.73
2018-07-23T03:19:29.696Z,100762.13
2018-07-23T03:20:33.345Z,100763.76
2018-07-23T03:21:36.795Z,100755.41
2018-07-23T03:22:40.180Z,100763.52
2018-07-23T03:23:43.603Z,100763.52
2018-07-23T03:24:47.017Z,100762.37
2018-07-23T03:25:50.455Z,100765.16
2018-07-23T03:26:53.874Z,100762.58
2018-07-23T03:27:57.242Z,100766.17
2018-07-23T03:29:00.626Z,100763.17
2018-07-23T03:30:04.505Z,100763.76
2018-07-23T03:31:08.178Z,100766.55
2018-07-23T03:32:11.568Z,100767.34
2018-07-23T03:33:14.976Z,100770.94
2018-07-23T03:34:18.447Z,100763.17
2018-07-23T03:35:21.885Z,100761.19
2018-07-23T03:36:25.312Z,100770.13
2018-07-23T03:37:28.716Z,100770.72
2018-07-23T03:38:32.140Z,100767.94
2018-07-23T03:39:35.505Z,100766.30
2018-07-23T03:40:38.921Z,100776.29
2018-07-23T03:41:42.435Z,100767.94
2018-07-23T03:42:45.855Z,100772.70
2018-07-23T03:43:49.246Z,100772.11
2018-07-23T03:44:52.680Z,100770.72
2018-07-23T03:45:56.076Z,100776.29
2018-07-23T03:46:59.572Z,100773.50
2018-07-23T03:48:02.989Z,100776.29
2018-07-23T03:49:06.932Z,100782.45
2018-07-23T03:50:10.355Z,100778.48
2018-07-23T03:51:13.774Z,100777.44
2018-07-23T03:52:17.226Z,100773.05
2018-07-23T03:53:20.648Z,100773.26
2018-07-23T03:54:24.071Z,100778.27
2018-07-23T03:55:27.438Z,100777.22
2018-07-23T03:56:30.863Z,100776.63
2018-07-23T03:57:34.304Z,100782.79
2018-07-23T03:58:37.820Z,100777.81
2018-07-23T03:59:41.224Z,100780.38
2018-07-23T04:00:44.624Z,100777.22
2018-07-23T04:01:48.061Z,100781.39
2018-07-23T04:02:51.473Z,100775.61
2018-07-23T04:03:54.884Z,100778.40
2018-07-23T04:04:58.306Z,100778.40
2018-07-23T04:06:01.738Z,100780.59
2018-07-23T04:07:05.184Z,100777.81
2018-07-23T04:08:08.600Z,100782.58
2018-07-23T04:09:11.994Z,100787.77
2018-07-23T04:10:15.415Z,100788.36
2018-07-23T04:11:18.804Z,100786.97
2018-07-23T04:12:22.224Z,100781.39
2018-07-23T04:13:25.637Z,100783.97
2018-07-23T04:14:29.348Z,100785.58
2018-07-23T04:15:32.771Z,100781.98
2018-07-23T04:16:36.252Z,100790.34
2018-07-23T04:17:39.623Z,100786.75
2018-07-23T04:18:43.044Z,100783.75
2018-07-23T04:19:46.443Z,100785.95
2018-07-23T04:20:49.849Z,100785.14
2018-07-23T04:21:53.274Z,100787.92
2018-07-23T04:22:56.662Z,100787.92
2018-07-23T04:24:00.088Z,100787.71
2018-07-23T04:25:03.510Z,100786.53
2018-07-23T04:26:06.930Z,100787.71
2018-07-23T04:27:10.458Z,100785.08
2018-07-23T04:28:13.833Z,100785.30
2018-07-23T04:29:17.229Z,100782.86
2018-07-23T04:30:20.671Z,100789.81
2018-07-23T04:31:24.057Z,100786.23
2018-07-23T04:32:27.472Z,100793.99
2018-07-23T04:33:30.869Z,100788.42
2018-07-23T04:34:34.293Z,100789.60
2018-07-23T04:35:37.711Z,100793.56
2018-07-23T04:36:41.107Z,100794.36
2018-07-23T04:37:44.541Z,100795.54
2018-07-23T04:38:47.922Z,100792.76
2018-07-23T04:39:51.368Z,100796.93
2018-07-23T04:40:54.786Z,100799.13
2018-07-23T04:41:58.215Z,100801.33
2018-07-23T04:43:01.618Z,100804.70
2018-07-23T04:44:05.034Z,100800.73
2018-07-23T04:45:08.458Z,100796.34
2018-07-23T04:46:11.850Z,100800.73
2018-07-23T04:47:15.257Z,100805.28
2018-07-23T04:48:18.645Z,100804.48
2018-07-23T04:49:22.084Z,100795.91
2018-07-23T04:50:25.511Z,100801.70
2018-07-23T04:51:28.932Z,100803.67
2018-07-23T04:52:32.344Z,100798.70
2018-07-23T04:53:35.783Z,100801.70
2018-07-23T04:54:39.159Z,100800.09
2018-07-23T04:55:42.555Z,100797.09
2018-07-23T04:56:45.956Z,100804.63
2018-07-23T04:57:49.340Z,100808.22
2018-07-23T04:58:52.756Z,100803.24
2018-07-23T04:59:56.148Z,100805.22
2018-07-23T05:00:59.603Z,100802.44
2018-07-23T05:02:03.023Z,100803.39
2018-07-23T05:03:06.452Z,100808.38
2018-07-23T05:04:09.871Z,100810.36
2018-07-23T05:05:13.248Z,100807.58
2018-07-23T05:06:16.649Z,100803.39
2018-07-23T05:07:20.156Z,100805.97
2018-07-23T05:08:23.587Z,100812.34
2018-07-23T05:09:26.994Z,100807.58
2018-07-23T05:10:30.418Z,100807.58
2018-07-23T05:11:33.865Z,100808.16
2018-07-23T05:12:37.302Z,100810.14
2018-07-23T05:13:40.739Z,100811.75
2018-07-23T05:14:44.138Z,100805.00
2018-07-23T05:15:47.551Z,100806.98
2018-07-23T05:16:50.975Z,100809.77
2018-07-23T05:17:54.401Z,100807.20
2018-07-23T05:18:57.832Z,100809.55
2018-07-23T05:20:01.218Z,100815.27
2018-07-23T05:21:04.635Z,100815.06
2018-07-23T05:22:08.110Z,100817.75
2018-07-23T05:23:11.567Z,100813.94
2018-07-23T05:24:14.982Z,100811.31
2018-07-23T05:25:18.388Z,100813.45
2018-07-23T05:26:21.785Z,100810.23
2018-07-23T05:27:25.282Z,100811.77
2018-07-23T05:28:28.864Z,100813.53
2018-07-23T05:29:32.260Z,100811.47
2018-07-23T05:30:35.717Z,100813.37
2018-07-23T05:31:39.241Z,100817.92
2018-07-23T05:32:42.660Z,100813.75
2018-07-23T05:33:46.072Z,100810.53
2018-07-23T05:34:49.458Z,100814.85
2018-07-23T05:35:52.872Z,100818.00
2018-07-23T05:36:56.783Z,100813.95
2018-07-23T05:38:00.228Z,100819.08
2018-07-23T05:39:04.100Z,100820.25
2018-07-23T05:40:07.727Z,100816.45
2018-07-23T05:41:11.255Z,100819.59
2018-07-23T05:42:14.786Z,100815.80
2018-07-23T05:43:18.528Z,100818.72
2018-07-23T05:44:22.332Z,100818.26
2018-07-23T05:45:25.737Z,100819.98
2018-07-23T05:46:29.176Z,100818.38
2018-07-23T05:47:32.545Z,100821.73
2018-07-23T05:48:35.994Z,100814.72
2018-07-23T05:49:39.444Z,100814.13
2018-07-23T05:50:42.838Z,100807.55
2018-07-23T05:51:46.251Z,100811.50
2018-07-23T05:52:49.660Z,100809.67
2018-07-23T05:53:53.080Z,100812.82
2018-07-23T05:54:56.685Z,100813.09
2018-07-23T05:56:00.081Z,100812.06
2018-07-23T05:57:03.470Z,100816.97
2018-07-23T05:58:07.075Z,100811.92
2018-07-23T05:59:10.531Z,100812.28
2018-07-23T06:00:14.261Z,100810.79
2018-07-23T06:01:17.778Z,100814.08
2018-07-23T06:02:21.177Z,100816.20
2018-07-23T06:03:24.693Z,100811.59
2018-07-23T06:04:28.143Z,100813.34
2018-07-23T06:05:31.552Z,100811.63
2018-07-23T06:06:34.998Z,100810.89
2018-07-23T06:07:38.441Z,100814.04
2018-07-23T06:08:41.859Z,100814.55
2018-07-23T06:09:45.288Z,100816.05
2018-07-23T06:10:48.752Z,100814.07
2018-07-23T06:11:52.286Z,100812.83
2018-07-23T06:12:56.222Z,100811.30
2018-07-23T06:13:59.638Z,100814.91
2018-07-23T06:15:03.096Z,100815.46
2018-07-23T06:16:06.656Z,100812.69
2018-07-23T06:17:10.069Z,100812.94
2018-07-23T06:18:13.478Z,100814.18
2018-07-23T06:19:16.896Z,100814.77
2018-07-23T06:20:20.368Z,100816.37
2018-07-23T06:21:23.857Z,100819.08
2018-07-23T06:22:27.327Z,100814.66
2018-07-23T06:23:30.791Z,100821.60
2018-07-23T06:24:34.286Z,100815.97
2018-07-23T06:25:37.800Z,100825.22
2018-07-23T06:26:41.268Z,100820.83
2018-07-23T06:27:44.672Z,100821.05
2018-07-23T06:28:48.065Z,100831.03
2018-07-23T06:29:51.474Z,100831.03
2018-07-23T06:30:54.900Z,100829.39
2018-07-23T06:31:58.757Z,100827.92
2018-07-23T06:33:02.177Z,100833.62
2018-07-23T06:34:05.643Z,100829.00
2018-07-23T06:35:09.179Z,100829.23
2018-07-23T06:36:12.764Z,100828.17
2018-07-23T06:37:16.172Z,100826.92
2018-07-23T06:38:19.638Z,100828.09
2018-07-23T06:39:23.052Z,100829.03
2018-07-23T06:40:26.480Z,100829.31
2018-07-23T06:41:30.014Z,100827.92
2018-07-23T06:42:33.526Z,100835.81
2018-07-23T06:43:37.104Z,100833.50
2018-07-23T06:44:40.585Z,100834.45
2018-07-23T06:45:44.019Z,100834.00
2018-07-23T06:46:47.724Z,100839.78
2018-07-23T06:47:51.136Z,100839.78
2018-07-23T06:48:54.514Z,100835.84
2018-07-23T06:49:57.919Z,100833.28
2018-07-23T06:51:02.337Z,100839.53
2018-07-23T06:52:05.818Z,100836.98
2018-07-23T06:53:09.294Z,100838.45
2018-07-23T06:54:12.743Z,100838.31
2018-07-23T06:55:17.783Z,100842.12
2018-07-23T06:56:24.354Z,100841.53
2018-07-23T06:57:28.177Z,100841.17
2018-07-23T06:58:31.772Z,100838.39
2018-07-23T06:59:36.346Z,100841.17
2018-07-23T07:00:40.185Z,100842.56
2018-07-23T07:01:44.559Z,100847.89
2018-07-23T07:02:48.110Z,100842.56
2018-07-23T07:03:51.540Z,100849.95
2018-07-23T07:04:54.960Z,100846.36
2018-07-23T07:05:58.445Z,100855.14
2018-07-23T07:07:01.942Z,100844.03
2018-07-23T07:08:05.807Z,100846.00
2018-07-23T07:09:10.385Z,100848.45
2018-07-23T07:10:13.788Z,100848.09
2018-07-23T07:11:23.533Z,100851.89
2018-07-23T07:12:27.068Z,100849.56
2018-07-23T07:13:30.605Z,100854.50
2018-07-23T07:14:34.027Z,100847.20
2018-07-23T07:15:37.506Z,100848.33
2018-07-23T07:16:40.924Z,100848.77
2018-07-23T07:17:44.716Z,100848.77
2018-07-23T07:18:48.137Z,100844.83
2018-07-23T07:19:51.933Z,100845.27
2018-07-23T07:20:55.380Z,100846.87
2018-07-23T07:21:58.782Z,100842.34
2018-07-23T07:23:02.578Z,100841.98
2018-07-23T07:24:06.347Z,100842.20
2018-07-23T07:25:09.773Z,100839.42
2018-07-23T07:26:13.169Z,100846.84
2018-07-23T07:27:16.871Z,100843.11
2018-07-23T07:28:21.608Z,100846.11
2018-07-23T07:29:25.040Z,100844.95
2018-07-23T07:30:28.435Z,100849.77
2018-07-23T07:31:31.857Z,100845.61
2018-07-23T07:32:35.296Z,100848.24
2018-07-23T07:33:38.691Z,100847.66
2018-07-23T07:34:42.272Z,100844.30
2018-07-23T07:35:45.700Z,100849.27
2018-07-23T07:36:49.124Z,100845.31
2018-07-23T07:37:52.600Z,100846.93
2018-07-23T07:38:56.010Z,100846.70
2018-07-23T07:39:59.453Z,100844.41
2018-07-23T07:41:02.884Z,100843.02
2018-07-23T07:42:06.582Z,100845.42
2018-07-23T07:43:10.039Z,100847.62
2018-07-23T07:44:13.455Z,100844.62
2018-07-23T07:45:17.078Z,100843.45
2018-07-23T07:46:20.614Z,100841.25
2018-07-23T07:47:24.017Z,100845.06
2018-07-23T07:48:27.550Z,100848.64
2018-07-23T07:49:30.998Z,100839.50
2018-07-23T07:52:02.485Z,100846.30
2018-07-23T07:53:05.885Z,100841.91
2018-07-23T07:54:09.595Z,100846.89
2018-07-23T07:55:13.021Z,100839.94
2018-07-23T07:56:16.452Z,100838.55
2018-07-23T07:57:19.901Z,100843.52
2018-07-23T07:58:23.319Z,100842.13
2018-07-23T07:59:26.727Z,100838.55
2018-07-23T08:00:30.138Z,100839.36
2018-07-23T08:01:33.578Z,100839.94
2018-07-23T08:02:36.990Z,100837.96
2018-07-23T08:03:40.480Z,100834.59
2018-07-23T08:04:43.930Z,100830.43
2018-07-23T08:05:47.361Z,100837.02
2018-07-23T08:06:50.781Z,100830.43
2018-07-23T08:07:54.247Z,100830.64
2018-07-23T08:08:57.661Z,100831.23
2018-07-23T08:10:01.083Z,100830.64
2018-07-23T08:11:04.540Z,100825.67
2018-07-23T08:12:08.307Z,100832.03
2018-07-23T08:13:11.694Z,100836.20
2018-07-23T08:14:15.137Z,100834.45
2018-07-23T08:15:18.558Z,100832.84
2018-07-23T08:16:21.960Z,100833.64
2018-07-23T08:17:25.450Z,100828.89
2018-07-23T08:18:28.912Z,100829.26
2018-07-23T08:19:32.465Z,100828.67
2018-07-23T08:20:35.975Z,100830.87
2018-07-23T08:21:39.672Z,100835.03
2018-07-23T08:22:43.144Z,100837.23
2018-07-23T08:23:46.549Z,100838.03
2018-07-23T08:24:50.010Z,100835.48
2018-07-23T08:25:53.419Z,100836.87
2018-07-23T08:26:56.866Z,100833.28
2018-07-23T08:28:00.321Z,100836.87
2018-07-23T08:29:03.843Z,100836.87
2018-07-23T08:30:07.608Z,100839.87
2018-07-23T08:31:11.012Z,100835.70
2018-07-23T08:32:14.434Z,100837.30
2018-07-23T08:33:17.964Z,100842.28
2018-07-23T08:34:21.382Z,100837.30
2018-07-23T08:35:24.797Z,100833.13
2018-07-23T08:36:28.234Z,100833.13
2018-07-23T08:37:31.620Z,100832.77
2018-07-23T08:38:35.127Z,100836.94
2018-07-23T08:39:38.548Z,100833.36
2018-07-23T08:40:42.122Z,100831.97
2018-07-23T08:41:45.579Z,100834.97
2018-07-23T08:42:49.010Z,100839.38
2018-07-23T08:43:52.481Z,100834.63
2018-07-23T08:44:56.670Z,100834.63
2018-07-23T08:46:00.085Z,100826.29
2018-07-23T08:47:03.516Z,100827.09
2018-07-23T08:48:07.178Z,100822.70
2018-07-23T08:49:10.624Z,100822.92
2018-07-23T08:50:14.025Z,100824.67
2018-07-23T08:51:17.460Z,100822.92
2018-07-23T08:52:20.836Z,100818.53
2018-07-23T08:53:24.607Z,100826.87
2018-07-23T08:54:28.589Z,100826.87
2018-07-23T08:55:32.041Z,100824.09
2018-07-23T08:56:35.426Z,100832.18
2018-07-23T08:57:38.870Z,100828.84
2018-07-23T08:58:42.262Z,100828.84
2018-07-23T08:59:45.680Z,100830.23
2018-07-23T09:00:49.364Z,100829.66
2018-07-23T09:01:52.767Z,100826.06
2018-07-23T09:02:56.187Z,100824.09
2018-07-23T09:03:59.597Z,100824.09
2018-07-23T09:05:03.020Z,100824.09
2018-07-23T09:06:07.239Z,100822.92
2018-07-23T09:07:10.634Z,100830.09
2018-07-23T09:08:14.152Z,100831.48
2018-07-23T09:09:17.574Z,100828.48
2018-07-23T09:10:21.018Z,100833.45
2018-07-23T09:11:24.464Z,100829.50
2018-07-23T09:12:28.157Z,100825.55
2018-07-23T09:13:31.587Z,100833.09
2018-07-23T09:14:34.982Z,100827.97
2018-07-23T09:15:38.417Z,100827.75
2018-07-23T09:16:41.869Z,100836.53
2018-07-23T09:17:45.399Z,100831.98
2018-07-23T09:18:48.795Z,100829.80
2018-07-23T09:19:52.320Z,100840.77
2018-07-23T09:20:55.959Z,100836.02
2018-07-23T09:21:59.455Z,100847.58
2018-07-23T09:23:02.891Z,100842.02
2018-07-23T09:24:06.349Z,100836.23
2018-07-23T09:25:09.767Z,100837.26
2018-07-23T09:26:13.589Z,100842.23
2018-07-23T09:27:17.254Z,100841.31
2018-07-23T09:28:20.964Z,100835.75
2018-07-23T09:29:24.362Z,100837.14
2018-07-23T09:30:33.085Z,100837.98
2018-07-23T09:31:37.224Z,100840.76
2018-07-23T09:32:40.667Z,100835.41
2018-07-23T09:33:45.089Z,100839.58
2018-07-23T09:34:48.756Z,100836.00
2018-07-23T09:35:52.943Z,100842.36
2018-07-23T09:36:57.167Z,100837.39
2018-07-23T09:38:01.363Z,100832.84
2018-07-23T09:39:08.170Z,100833.44
2018-07-23T09:40:11.605Z,100838.19
2018-07-23T09:41:15.072Z,100832.05
2018-07-23T09:42:18.750Z,100837.61
2018-07-23T09:43:22.202Z,100842.58
2018-07-23T09:44:25.924Z,100836.44
2018-07-23T09:45:29.713Z,100836.44
2018-07-23T09:46:33.132Z,100830.88
2018-07-23T09:47:36.733Z,100837.83
2018-07-23T09:48:40.240Z,100836.66
2018-07-23T09:49:43.919Z,100829.48
2018-07-23T09:50:47.541Z,100835.05
2018-07-23T09:51:51.068Z,100834.83
2018-07-23T09:52:54.904Z,100830.88
2018-07-23T09:53:58.354Z,100837.02
2018-07-23T09:55:01.810Z,100835.05
2018-07-23T09:56:05.309Z,100836.22
2018-07-23T09:57:08.724Z,100829.48
2018-07-23T09:58:12.163Z,100829.05
2018-07-23T09:59:15.562Z,100832.84
2018-07-23T10:00:24.353Z,100834.83
2018-07-23T10:01:27.884Z,100829.05
2018-07-23T10:02:31.312Z,100833.44
2018-07-23T10:03:34.819Z,100830.44
2018-07-23T10:04:38.240Z,100827.06
2018-07-23T10:05:41.708Z,100827.06
2018-07-23T10:06:45.138Z,100822.09
2018-07-23T10:07:48.535Z,100822.09
2018-07-23T10:08:51.970Z,100825.09
2018-07-23T10:09:55.384Z,100822.09
2018-07-23T10:10:58.849Z,100823.48
2018-07-23T10:12:02.296Z,100825.09
2018-07-23T10:13:05.757Z,100824.28
2018-07-23T10:14:09.882Z,100817.92
2018-07-23T10:15:13.427Z,100823.70
2018-07-23T10:16:17.388Z,100822.09
2018-07-23T10:17:20.935Z,100822.09
2018-07-23T10:18:24.349Z,100820.11
2018-07-23T10:19:27.761Z,100822.89
2018-07-23T10:20:31.150Z,100821.94
2018-07-23T10:21:34.538Z,100820.33
2018-07-23T10:22:37.930Z,100815.36
2018-07-23T10:23:41.328Z,100822.09
2018-07-23T10:24:44.756Z,100819.31
2018-07-23T10:25:48.213Z,100815.73
2018-07-23T10:26:51.644Z,100819.65
2018-07-23T10:27:55.057Z,100823.23
2018-07-23T10:28:58.496Z,100818.26
2018-07-23T10:30:03.838Z,100816.28
2018-07-23T10:31:08.949Z,100812.69
2018-07-23T10:32:12.934Z,100821.28
2018-07-23T10:33:16.459Z,100819.65
2018-07-23T10:34:19.925Z,100819.06
2018-07-23T10:35:23.360Z,100817.67
2018-07-23T10:36:26.897Z,100812.11
2018-07-23T10:37:30.426Z,100815.14
2018-07-23T10:38:33.850Z,100812.58
2018-07-23T10:39:37.254Z,100814.55
2018-07-23T10:40:40.683Z,100808.03
2018-07-23T10:41:44.098Z,100810.81
2018-07-23T10:42:47.846Z,100811.25
2018-07-23T10:43:51.275Z,100804.88
2018-07-23T10:44:55.304Z,100806.27
2018-07-23T10:45:58.732Z,100803.71
2018-07-23T10:47:05.682Z,100806.49
2018-07-23T10:48:09.122Z,100807.30
2018-07-23T10:49:12.545Z,100805.91
2018-07-23T10:50:16.290Z,100810.88
2018-07-23T10:51:19.983Z,100811.10
2018-07-23T10:52:23.871Z,100809.49
2018-07-23T10:53:27.569Z,100807.88
2018-07-23T10:54:30.980Z,100811.10
2018-07-23T10:55:34.420Z,100806.71
2018-07-23T10:56:37.998Z,100806.93
2018-07-23T10:57:41.393Z,100804.36
2018-07-23T10:58:44.819Z,100806.93
2018-07-23T10:59:48.242Z,100804.95
2018-07-23T11:00:51.801Z,100800.84
2018-07-23T11:01:55.309Z,100807.80
2018-07-23T11:02:58.742Z,100805.02
2018-07-23T11:04:02.163Z,100806.19
2018-07-23T11:05:06.480Z,100806.19
2018-07-23T11:06:09.907Z,100806.78
2018-07-23T11:07:13.361Z,100807.58
2018-07-23T11:08:16.815Z,100808.17
2018-07-23T11:09:20.263Z,100808.97
2018-07-23T11:10:23.777Z,100812.34
2018-07-23T11:11:27.232Z,100805.39
2018-07-23T11:12:30.647Z,100802.02
2018-07-23T11:13:34.048Z,100802.61
2018-07-23T11:14:37.491Z,100801.58
2018-07-23T11:15:40.916Z,100801.22
2018-07-23T11:16:44.305Z,100804.58
2018-07-23T11:17:47.741Z,100799.83
2018-07-23T11:18:51.183Z,100802.02
2018-07-23T11:19:54.601Z,100797.41
2018-07-23T11:20:58.027Z,100807.58
2018-07-23T11:22:01.412Z,100796.83
2018-07-23T11:23:05.068Z,100804.00
2018-07-23T11:24:08.508Z,100797.62
2018-07-23T11:25:39.876Z,100808.17
2018-07-23T11:26:15.538Z,100805.39
2018-07-23T11:27:18.888Z,100804.58
2018-07-23T11:28:22.313Z,100799.02
2018-07-23T11:29:25.766Z,100804.58
2018-07-23T11:30:29.150Z,100803.19
2018-07-23T11:31:32.596Z,100800.41
2018-07-23T11:32:36.591Z,100802.97
2018-07-23T11:33:40.039Z,100804.58
2018-07-23T11:34:43.472Z,100802.97
2018-07-23T11:35:46.871Z,100803.19
2018-07-23T11:36:50.320Z,100807.00
2018-07-23T11:37:53.760Z,100802.23
2018-07-23T11:38:57.232Z,100797.84
2018-07-23T11:40:00.671Z,100798.66
2018-07-23T11:41:04.097Z,100800.63
2018-07-23T11:42:07.584Z,100797.84
2018-07-23T11:43:11.008Z,100799.45
2018-07-23T11:44:14.460Z,100797.27
2018-07-23T11:45:17.910Z,100800.05
2018-07-23T11:46:24.984Z,100798.06
2018-07-23T11:47:24.874Z,100801.44
2018-07-23T11:48:28.260Z,100797.27
2018-07-23T11:49:31.657Z,100802.02
2018-07-23T11:50:35.785Z,100799.23
2018-07-23T11:51:39.186Z,100799.83
2018-07-23T11:52:42.612Z,100802.23
2018-07-23T11:53:46.115Z,100805.83
2018-07-23T11:54:49.522Z,100798.06
2018-07-23T11:55:53.061Z,100799.23
2018-07-23T11:56:56.529Z,100799.45
2018-07-23T11:57:59.913Z,100796.67
2018-07-23T11:59:03.337Z,100800.27
2018-07-23T12:00:06.819Z,100792.50
2018-07-23T12:01:10.247Z,100793.89
2018-07-23T12:02:14.625Z,100795.50
2018-07-23T12:03:18.041Z,100789.13
2018-07-23T12:04:21.485Z,100791.33
2018-07-23T12:05:24.911Z,100791.58
2018-07-23T12:06:28.340Z,100795.50